LFBD 301030Z AUTO 08007KT 030V130 CAVOK 25/15 Q1014 NOSIG

ElémentsDécodage
LFBD Station météo située sur l'aérodrome de BORDEAUX Mérignac
301030Z émis le 30 du mois à 10h30 UTC
AUTO Bulletin édité par un automate
08007KT vent du 080°, 07 noeuds
030V130 vent de direction variable entre 030° et 130°
CAVOK Ceiling And Visibility OK
- Visibilité de 10 Km ou plus
- Pas de nuage au-dessous de 1500m ou au-dessous de l'altitude minimale du secteur la plus élevée (si>1500m) et absence de CB
- pas de temps présent significatif
25/15 température 25°C, point de rosée 15°C
 soit une humidité relative de 54%
Q1014 la pression au niveau de la mer (QNH) est de 1014 hPa
NOSIG Pas de changement significatif prévu au cours des deux heures suivant l'heure de l'observation